createdAt,value
2022-09-22T00:00:45.496Z,86.42
2022-09-22T00:06:17.028Z,85.58
2022-09-22T00:11:48.867Z,85.09
2022-09-22T00:17:20.266Z,84.02
2022-09-22T00:22:51.725Z,84.82
2022-09-22T00:28:23.808Z,86.91
2022-09-22T00:33:55.127Z,86.68
2022-09-22T00:39:26.412Z,86.34
2022-09-22T00:44:57.862Z,87.11
2022-09-22T00:50:29.422Z,86.25
2022-09-22T00:56:00.720Z,85.75
2022-09-22T01:01:32.312Z,85.19
2022-09-22T01:07:03.462Z,84.65
2022-09-22T01:12:34.912Z,85.52
2022-09-22T01:18:06.681Z,84.75
2022-09-22T01:23:38.472Z,88.09
2022-09-22T01:29:10.184Z,88.36
2022-09-22T01:34:41.482Z,90.35
2022-09-22T01:40:13.100Z,90.35
2022-09-22T01:45:44.745Z,90.25
2022-09-22T01:51:16.309Z,89.63
2022-09-22T01:56:47.620Z,90.03
2022-09-22T02:02:18.847Z,90.09
2022-09-22T02:07:50.293Z,90.01
2022-09-22T02:13:22.098Z,89.25
2022-09-22T02:18:53.675Z,89.01
2022-09-22T02:24:25.007Z,89.49
2022-09-22T02:29:56.273Z,89.10
2022-09-22T02:35:27.548Z,89.51
2022-09-22T02:40:59.036Z,89.60
2022-09-22T02:46:31.291Z,90.28
2022-09-22T02:52:02.421Z,89.92
2022-09-22T02:57:33.992Z,90.00
2022-09-22T03:03:05.678Z,90.08
2022-09-22T03:08:36.840Z,90.05
2022-09-22T03:14:08.527Z,89.74
2022-09-22T03:19:40.230Z,89.25
2022-09-22T03:25:12.141Z,88.78
2022-09-22T03:36:13.712Z,90.15
2022-09-22T03:41:45.582Z,90.17
2022-09-22T03:47:17.772Z,89.48
2022-09-22T03:52:49.711Z,90.09
2022-09-22T03:58:21.563Z,90.74
2022-09-22T04:03:53.304Z,88.62
2022-09-22T04:09:25.253Z,90.89
2022-09-22T04:14:56.693Z,90.35
2022-09-22T04:20:28.009Z,90.72
2022-09-22T04:25:59.551Z,90.60
2022-09-22T04:31:30.997Z,90.78
2022-09-22T04:37:02.593Z,91.56
2022-09-22T04:42:34.496Z,92.07
2022-09-22T04:48:06.352Z,91.91
2022-09-22T04:53:37.711Z,91.55
2022-09-22T04:59:08.945Z,91.47
2022-09-22T05:04:40.313Z,91.67
2022-09-22T05:10:12.383Z,92.32
2022-09-22T05:15:43.858Z,92.47
2022-09-22T05:21:15.573Z,92.45
2022-09-22T05:26:46.879Z,92.12
2022-09-22T05:32:18.585Z,91.66
2022-09-22T05:37:50.081Z,92.67
2022-09-22T05:43:21.659Z,89.06
2022-09-22T05:48:53.656Z,88.93
2022-09-22T05:54:25.095Z,88.42
2022-09-22T05:59:57.021Z,89.01
2022-09-22T06:05:28.602Z,86.35
2022-09-22T06:11:00.252Z,81.62
2022-09-22T06:16:31.602Z,80.63
2022-09-22T06:22:03.014Z,75.84
2022-09-22T06:27:34.824Z,74.00
2022-09-22T06:33:06.448Z,69.63
2022-09-22T06:38:37.805Z,66.29
2022-09-22T06:49:38.926Z,62.98
2022-09-22T06:55:10.303Z,60.91
2022-09-22T07:00:41.879Z,60.82
2022-09-22T07:06:17.990Z,60.14
2022-09-22T07:11:44.690Z,58.85
2022-09-22T07:17:15.960Z,56.81
2022-09-22T07:22:47.327Z,56.21
2022-09-22T07:28:18.592Z,52.98
2022-09-22T07:33:49.953Z,53.37
2022-09-22T07:39:21.319Z,56.22
2022-09-22T07:44:53.263Z,55.79
2022-09-22T07:50:25.266Z,54.74
2022-09-22T07:55:56.555Z,53.33
2022-09-22T08:01:27.909Z,54.30
2022-09-22T08:06:59.499Z,56.13
2022-09-22T08:12:30.764Z,54.29
2022-09-22T08:18:02.142Z,56.18
2022-09-22T08:23:33.824Z,58.34
2022-09-22T08:29:05.170Z,57.27
2022-09-22T08:34:36.543Z,56.60
2022-09-22T08:40:08.487Z,56.62
2022-09-22T08:45:39.987Z,55.26
2022-09-22T08:56:41.158Z,57.54
2022-09-22T09:02:12.675Z,58.07
2022-09-22T09:18:43.150Z,58.95
2022-09-22T09:29:46.687Z,62.52
2022-09-22T09:35:18.255Z,63.38
2022-09-22T09:40:49.489Z,63.26
2022-09-22T09:46:21.012Z,63.28
2022-09-22T09:51:52.706Z,62.53
2022-09-22T09:57:31.107Z,63.37
2022-09-22T10:02:55.808Z,63.29
2022-09-22T10:08:27.155Z,61.90
2022-09-22T10:13:58.561Z,59.57
2022-09-22T10:24:59.495Z,60.45
2022-09-22T10:30:31.139Z,60.85
2022-09-22T10:36:05.453Z,58.80
2022-09-22T10:41:34.710Z,59.40
2022-09-22T10:47:06.022Z,59.32
2022-09-22T10:52:37.781Z,57.89
2022-09-22T10:58:09.585Z,56.77
2022-09-22T11:03:41.332Z,56.42
2022-09-22T11:09:13.283Z,56.77
2022-09-22T11:14:44.960Z,56.49
2022-09-22T11:20:17.316Z,56.79
2022-09-22T11:25:49.036Z,56.63
2022-09-22T11:31:20.771Z,54.12
2022-09-22T11:36:52.334Z,54.64
2022-09-22T11:42:23.980Z,54.35
2022-09-22T11:47:55.737Z,56.03
2022-09-22T11:53:27.781Z,54.70
2022-09-22T11:58:59.358Z,55.05
2022-09-22T12:04:31.023Z,55.67
2022-09-22T12:06:43.236Z,56.73
2022-09-22T12:12:14.279Z,56.03
2022-09-22T12:17:45.782Z,55.38
2022-09-22T12:23:17.015Z,55.20
2022-09-22T12:28:48.309Z,53.48
2022-09-22T12:34:19.739Z,52.67
2022-09-22T12:39:51.141Z,53.56
2022-09-22T12:45:22.422Z,52.09
2022-09-22T12:50:54.085Z,52.46
2022-09-22T12:56:25.357Z,51.67
2022-09-22T13:01:56.763Z,51.01
2022-09-22T13:07:28.254Z,52.77
2022-09-22T13:12:59.897Z,52.08
2022-09-22T13:18:31.672Z,51.78
2022-09-22T13:24:02.855Z,50.75
2022-09-22T13:29:34.200Z,50.80
2022-09-22T13:35:05.579Z,51.71
2022-09-22T13:40:37.093Z,50.38
2022-09-22T13:46:08.352Z,51.02
2022-09-22T13:51:39.733Z,50.25
2022-09-22T13:57:11.399Z,50.68
2022-09-22T14:02:42.959Z,49.55
2022-09-22T14:08:17.204Z,49.76
2022-09-22T14:13:46.394Z,49.63
2022-09-22T14:19:18.045Z,48.38
2022-09-22T14:24:49.508Z,48.30
2022-09-22T14:30:21.487Z,49.36
2022-09-22T14:35:52.712Z,49.28
2022-09-22T14:46:53.530Z,47.89
2022-09-22T14:54:46.314Z,46.89
2022-09-22T15:00:17.574Z,48.22
2022-09-22T15:05:48.722Z,47.63
2022-09-22T15:11:20.018Z,47.39
2022-09-22T15:16:51.308Z,47.44
2022-09-22T15:22:22.595Z,48.94
2022-09-22T15:27:54.052Z,47.93
2022-09-22T15:33:25.751Z,46.90
2022-09-22T15:38:57.495Z,46.94
2022-09-22T15:44:29.062Z,47.01
2022-09-22T15:50:00.497Z,48.06
2022-09-22T15:55:32.198Z,47.34
2022-09-22T16:01:04.377Z,46.95
2022-09-22T16:06:35.887Z,49.83
2022-09-22T16:12:07.915Z,51.56
2022-09-22T16:17:39.480Z,50.78
2022-09-22T16:23:11.505Z,51.72
2022-09-22T16:28:43.003Z,51.62
2022-09-22T16:34:14.203Z,52.31
2022-09-22T16:39:45.483Z,51.55
2022-09-22T16:45:16.923Z,51.53
2022-09-22T16:50:48.260Z,51.74
2022-09-22T16:56:20.031Z,51.95
2022-09-22T17:01:51.815Z,52.97
2022-09-22T17:07:23.148Z,53.72
2022-09-22T17:12:54.573Z,54.68
2022-09-22T17:18:26.151Z,55.88
2022-09-22T17:23:58.292Z,56.07
2022-09-22T17:29:29.929Z,57.26
2022-09-22T17:35:01.851Z,57.91
2022-09-22T17:40:33.547Z,58.24
2022-09-22T17:46:05.502Z,59.43
2022-09-22T17:51:37.085Z,59.51
2022-09-22T17:57:08.833Z,60.78
2022-09-22T18:02:40.454Z,60.71
2022-09-22T18:08:12.216Z,61.90
2022-09-22T18:13:43.877Z,62.59
2022-09-22T18:19:15.580Z,62.05
2022-09-22T18:24:46.779Z,62.54
2022-09-22T18:30:18.174Z,61.59
2022-09-22T18:35:49.519Z,62.41
2022-09-22T18:41:21.364Z,63.67
2022-09-22T18:46:53.105Z,64.02
2022-09-22T18:52:24.602Z,64.73
2022-09-22T18:57:56.170Z,64.43
2022-09-22T19:03:27.910Z,65.44
2022-09-22T19:08:59.401Z,66.33
2022-09-22T19:14:30.833Z,66.27
2022-09-22T19:20:02.250Z,67.60
2022-09-22T19:25:34.144Z,68.05
2022-09-22T19:31:05.822Z,68.25
2022-09-22T19:36:37.445Z,69.05
2022-09-22T19:42:09.220Z,70.61
2022-09-22T19:47:41.059Z,72.48
2022-09-22T19:53:12.593Z,73.65
2022-09-22T20:04:14.037Z,73.50
2022-09-22T20:09:45.699Z,73.46
2022-09-22T20:15:17.422Z,73.23
2022-09-22T20:20:51.070Z,75.07
2022-09-22T20:26:21.438Z,76.33
2022-09-22T20:31:53.435Z,74.43
2022-09-22T20:42:56.768Z,75.27
2022-09-22T20:54:00.120Z,76.97
2022-09-22T20:59:31.947Z,76.21
2022-09-22T21:05:04.170Z,76.12
2022-09-22T21:10:36.119Z,75.66
2022-09-22T21:16:07.764Z,74.75
2022-09-22T21:21:39.332Z,76.01
2022-09-22T21:27:10.768Z,75.75
2022-09-22T21:32:42.500Z,77.89
2022-09-22T21:38:14.250Z,77.12
2022-09-22T21:49:15.155Z,80.72
2022-09-22T21:54:47.005Z,79.51
2022-09-22T22:00:31.966Z,81.33
2022-09-22T22:05:50.415Z,82.69
2022-09-22T22:11:22.195Z,82.56
2022-09-22T22:16:53.935Z,82.83
2022-09-22T22:27:54.809Z,82.86
2022-09-22T22:33:26.703Z,83.61
2022-09-22T22:38:58.202Z,82.22
2022-09-22T22:44:30.063Z,82.24
2022-09-22T22:50:01.618Z,83.35
2022-09-22T22:55:33.588Z,82.13
2022-09-22T23:01:05.131Z,80.47
2022-09-22T23:06:36.786Z,80.48
2022-09-22T23:12:08.312Z,80.66
2022-09-22T23:17:39.968Z,81.01
2022-09-22T23:23:11.444Z,82.32
2022-09-22T23:28:43.138Z,82.89
2022-09-22T23:34:14.979Z,82.57
2022-09-22T23:39:46.798Z,81.56
2022-09-22T23:45:18.430Z,83.09
2022-09-22T23:50:50.320Z,84.68
2022-09-22T23:56:22.303Z,85.54
